Time;durP1;ratioP1;P1;durP2;ratioP2;P2;SDS_P1;SDS_P2;PMS_P1;PMS_P2;Temp;Humidity;BMP_temperature;BMP_pressure;BME280_temperature;BME280_humidity;BME280_pressure;Samples;Min_cycle;Max_cycle;Signal;HPM_P1;HPM_P2
2023/08/22 00:00:32;;;;;;;1.90;1.67;;;15.40;99.90;;;;;;5027675;28;20042;-88
2023/08/22 00:02:58;;;;;;;2.10;1.58;;;15.40;99.90;;;;;;5041011;28;20059;-84
2023/08/22 00:05:24;;;;;;;4.32;1.75;;;15.40;99.90;;;;;;5016848;28;20022;-84
2023/08/22 00:07:50;;;;;;;3.13;1.70;;;15.40;99.90;;;;;;5009605;28;20045;-84
2023/08/22 00:10:16;;;;;;;4.13;2.28;;;15.40;99.90;;;;;;5025218;28;20656;-84
2023/08/22 00:12:42;;;;;;;3.17;2.15;;;15.40;99.90;;;;;;5022827;28;20082;-84
2023/08/22 00:15:12;;;;;;;1.85;1.75;;;15.40;99.90;;;;;;5024688;28;20116;-84
2023/08/22 00:17:37;;;;;;;2.22;1.98;;;15.30;99.90;;;;;;5021860;28;20034;-84
2023/08/22 00:20:09;;;;;;;3.58;2.03;;;15.40;99.90;;;;;;5024901;28;20018;-83
2023/08/22 00:22:36;;;;;;;5.82;2.50;;;15.40;99.90;;;;;;5015253;28;20076;-83
2023/08/22 00:25:02;;;;;;;4.75;2.10;;;15.40;99.90;;;;;;5020840;28;20025;-82
2023/08/22 00:27:28;;;;;;;2.38;1.80;;;15.40;99.90;;;;;;5026164;28;20034;-83
2023/08/22 00:29:54;;;;;;;3.13;2.08;;;15.40;99.90;;;;;;5020567;28;20033;-84
2023/08/22 00:32:20;;;;;;;4.18;2.28;;;15.40;99.90;;;;;;5025189;28;20034;-83
2023/08/22 00:34:46;;;;;;;2.67;1.95;;;15.40;99.90;;;;;;5017824;28;20030;-84
2023/08/22 00:37:11;;;;;;;2.88;2.08;;;15.40;99.90;;;;;;5024458;28;20026;-83
2023/08/22 00:39:37;;;;;;;2.38;2.17;;;15.40;99.90;;;;;;5021305;28;20041;-82
2023/08/22 00:42:02;;;;;;;6.32;2.05;;;15.40;99.90;;;;;;5019010;28;20057;-83
2023/08/22 00:44:28;;;;;;;4.00;2.38;;;15.40;99.90;;;;;;5024031;28;20025;-83
2023/08/22 00:46:54;;;;;;;4.35;1.92;;;15.50;99.90;;;;;;5014465;28;20117;-84
2023/08/22 00:49:20;;;;;;;5.20;2.08;;;15.50;99.90;;;;;;5024779;28;20053;-82
2023/08/22 00:51:45;;;;;;;2.80;1.98;;;15.50;99.90;;;;;;5018605;28;20489;-82
2023/08/22 00:54:12;;;;;;;4.03;2.10;;;15.50;99.90;;;;;;5024236;28;20030;-85
2023/08/22 00:56:38;;;;;;;2.17;1.98;;;15.50;99.90;;;;;;5018942;28;20037;-84
2023/08/22 00:59:04;;;;;;;3.25;2.05;;;15.50;99.90;;;;;;5013521;28;20556;-84
2023/08/22 01:01:30;;;;;;;4.68;2.28;;;15.50;99.90;;;;;;5009637;28;20045;-81
2023/08/22 01:03:56;;;;;;;3.72;1.98;;;15.50;99.90;;;;;;5018389;28;20026;-82
2023/08/22 01:06:49;;;;;;;4.32;1.80;;;15.50;99.90;;;;;;5025036;28;20025;-82
2023/08/22 01:09:31;;;;;;;3.92;1.85;;;15.50;99.90;;;;;;5010977;28;20025;-82
2023/08/22 01:12:04;;;;;;;3.83;2.22;;;15.50;99.90;;;;;;4995537;28;20060;-82
2023/08/22 01:14:34;;;;;;;4.85;2.08;;;15.50;99.90;;;;;;5018047;28;20030;-82
2023/08/22 01:17:01;;;;;;;3.22;1.70;;;15.50;99.90;;;;;;5014023;28;20061;-83
2023/08/22 01:19:28;;;;;;;4.88;2.17;;;15.50;99.90;;;;;;5022557;28;20068;-85
2023/08/22 01:21:53;;;;;;;2.85;2.00;;;15.60;99.90;;;;;;5010730;28;20596;-83
2023/08/22 01:24:19;;;;;;;1.83;1.73;;;15.50;99.90;;;;;;5011265;28;20030;-88
2023/08/22 01:26:46;;;;;;;2.75;2.00;;;15.50;99.90;;;;;;5020259;28;20603;-82
2023/08/22 01:29:18;;;;;;;4.13;2.15;;;15.50;99.90;;;;;;5019909;28;20479;-83
2023/08/22 01:32:00;;;;;;;3.38;1.67;;;15.50;99.90;;;;;;5026926;28;20508;-83
2023/08/22 01:34:30;;;;;;;3.53;2.15;;;15.50;99.90;;;;;;5014646;28;20034;-84
2023/08/22 01:36:59;;;;;;;2.25;1.70;;;15.50;99.90;;;;;;5024133;28;20014;-91
2023/08/22 01:39:27;;;;;;;1.88;1.77;;;15.40;99.90;;;;;;5033727;28;20357;-86
2023/08/22 01:41:55;;;;;;;3.50;1.88;;;15.40;99.90;;;;;;5023869;28;20088;-81
2023/08/22 01:44:20;;;;;;;5.53;1.73;;;15.40;99.90;;;;;;5018623;28;20041;-82
2023/08/22 01:46:46;;;;;;;5.97;1.83;;;15.40;99.90;;;;;;5026597;28;20022;-83
2023/08/22 01:49:11;;;;;;;3.65;2.05;;;15.40;99.90;;;;;;5014575;28;20018;-83
2023/08/22 01:51:37;;;;;;;2.80;2.33;;;15.40;99.90;;;;;;5015441;28;20505;-83
2023/08/22 01:54:02;;;;;;;2.25;1.77;;;15.40;99.90;;;;;;5021491;28;20038;-83
2023/08/22 01:56:28;;;;;;;3.67;2.03;;;15.40;99.90;;;;;;5020198;28;20036;-83
2023/08/22 01:58:54;;;;;;;3.85;2.38;;;15.40;99.90;;;;;;5029088;28;20018;-82
2023/08/22 02:01:20;;;;;;;3.60;1.90;;;15.40;99.90;;;;;;5022605;28;20042;-84
2023/08/22 02:03:46;;;;;;;8.43;1.95;;;15.40;99.90;;;;;;5021995;28;20022;-85
2023/08/22 02:06:11;;;;;;;5.30;2.70;;;15.40;99.90;;;;;;5022378;28;20022;-82
2023/08/22 02:08:39;;;;;;;4.40;2.40;;;15.40;99.90;;;;;;5022400;28;20625;-85
2023/08/22 02:11:05;;;;;;;1.67;1.58;;;15.50;99.90;;;;;;5022670;28;20029;-83
2023/08/22 02:13:31;;;;;;;3.35;2.10;;;15.50;99.90;;;;;;5022566;28;20386;-83
2023/08/22 02:15:56;;;;;;;3.72;2.20;;;15.50;99.90;;;;;;5025735;28;20028;-84
2023/08/22 02:18:22;;;;;;;2.53;2.13;;;15.50;99.90;;;;;;5013952;28;20481;-85
2023/08/22 02:20:52;;;;;;;4.20;2.35;;;15.60;99.90;;;;;;5023021;28;20472;-83
2023/08/22 02:23:18;;;;;;;2.67;1.95;;;15.60;99.90;;;;;;5022468;28;20026;-82
2023/08/22 02:25:45;;;;;;;2.95;2.00;;;15.60;99.90;;;;;;5022917;28;20245;-82
2023/08/22 02:28:10;;;;;;;3.25;1.98;;;15.60;99.90;;;;;;5020081;28;20057;-82
2023/08/22 02:30:36;;;;;;;3.63;2.30;;;15.70;99.90;;;;;;5022573;28;20149;-83
2023/08/22 02:33:01;;;;;;;3.58;1.92;;;15.60;99.90;;;;;;5026585;28;20034;-87
2023/08/22 02:35:27;;;;;;;3.58;1.92;;;15.70;99.90;;;;;;5019318;28;20030;-86
2023/08/22 02:37:52;;;;;;;3.17;1.98;;;15.70;99.90;;;;;;5015959;28;20419;-81
2023/08/22 02:40:18;;;;;;;2.85;2.13;;;15.70;99.90;;;;;;5025610;28;20447;-81
2023/08/22 02:42:43;;;;;;;4.70;2.05;;;15.70;99.90;;;;;;5023075;28;20048;-82
2023/08/22 02:45:09;;;;;;;1.83;1.55;;;15.70;99.90;;;;;;5023892;28;20045;-81
2023/08/22 02:47:35;;;;;;;3.67;2.30;;;15.70;99.90;;;;;;5022848;28;20500;-83
2023/08/22 02:50:01;;;;;;;3.50;2.25;;;15.70;99.90;;;;;;5026548;28;20026;-81
2023/08/22 02:52:26;;;;;;;2.65;2.13;;;15.70;99.90;;;;;;5020209;28;20033;-81
2023/08/22 02:54:52;;;;;;;2.55;1.83;;;15.70;99.90;;;;;;5021711;28;20029;-84
2023/08/22 02:57:18;;;;;;;2.75;1.80;;;15.70;99.90;;;;;;5020826;28;20064;-83
2023/08/22 02:59:43;;;;;;;3.10;2.15;;;15.70;99.90;;;;;;5016127;28;20036;-82
2023/08/22 03:02:09;;;;;;;2.95;2.30;;;15.70;99.90;;;;;;5023232;28;20416;-82
2023/08/22 03:04:37;;;;;;;7.80;2.17;;;15.70;99.90;;;;;;5018641;28;20029;-82
2023/08/22 03:07:04;;;;;;;2.75;1.77;;;15.70;99.90;;;;;;5028006;28;20432;-83
2023/08/22 03:09:29;;;;;;;4.88;1.98;;;15.70;99.90;;;;;;5017284;28;20370;-82
2023/08/22 03:11:55;;;;;;;2.20;2.00;;;15.80;99.90;;;;;;5024133;28;20181;-84
2023/08/22 03:14:21;;;;;;;4.45;2.00;;;15.80;99.90;;;;;;5020946;28;20048;-82
2023/08/22 03:16:46;;;;;;;2.10;1.60;;;15.80;99.90;;;;;;5023875;28;20061;-83
2023/08/22 03:19:12;;;;;;;2.42;2.03;;;15.80;99.90;;;;;;5028624;28;20480;-82
2023/08/22 03:21:37;;;;;;;2.63;1.65;;;15.80;99.90;;;;;;5018711;28;20374;-82
2023/08/22 03:24:03;;;;;;;2.28;1.80;;;15.80;99.90;;;;;;5022514;28;20437;-83
2023/08/22 03:26:29;;;;;;;5.45;2.15;;;15.80;99.90;;;;;;5019651;28;20416;-83
2023/08/22 03:28:54;;;;;;;5.32;2.05;;;15.80;99.90;;;;;;5013038;28;20465;-81
2023/08/22 03:31:22;;;;;;;2.78;1.90;;;15.80;99.90;;;;;;5014842;28;20252;-82
2023/08/22 03:33:47;;;;;;;2.47;2.03;;;15.80;99.90;;;;;;5021652;28;20458;-86
2023/08/22 03:36:13;;;;;;;3.25;1.92;;;15.80;99.90;;;;;;5012683;28;20062;-84
2023/08/22 03:38:39;;;;;;;1.92;1.77;;;15.90;99.90;;;;;;5021105;28;20108;-82
2023/08/22 03:41:05;;;;;;;6.22;2.10;;;15.90;99.90;;;;;;5021589;28;20374;-82
2023/08/22 03:43:31;;;;;;;3.75;1.88;;;15.90;99.90;;;;;;5021727;28;20071;-81
2023/08/22 03:45:56;;;;;;;2.55;1.85;;;15.90;99.90;;;;;;5017767;28;20022;-84
2023/08/22 03:48:22;;;;;;;3.75;2.17;;;15.90;99.90;;;;;;5020372;28;20148;-82
2023/08/22 03:50:47;;;;;;;3.30;2.00;;;15.90;99.90;;;;;;5019439;28;20267;-83
2023/08/22 03:53:13;;;;;;;2.90;1.88;;;15.90;99.90;;;;;;5022664;28;20053;-86
2023/08/22 03:55:39;;;;;;;3.55;1.83;;;15.90;99.90;;;;;;5018088;28;20032;-82
2023/08/22 03:58:05;;;;;;;2.65;1.95;;;15.90;99.90;;;;;;5020263;28;20026;-83
2023/08/22 04:00:31;;;;;;;4.18;2.22;;;15.90;99.90;;;;;;5019598;28;20033;-81
2023/08/22 04:02:58;;;;;;;2.20;2.00;;;15.90;99.90;;;;;;5018862;28;20097;-83
2023/08/22 04:05:24;;;;;;;2.45;1.65;;;15.90;99.90;;;;;;5018568;28;20440;-87
2023/08/22 04:07:50;;;;;;;3.15;2.05;;;15.90;99.90;;;;;;5015668;28;20017;-87
2023/08/22 04:10:16;;;;;;;7.13;2.00;;;15.90;99.90;;;;;;5021079;28;20029;-84
2023/08/22 04:12:42;;;;;;;2.63;2.00;;;15.90;99.90;;;;;;5021329;28;20072;-81
2023/08/22 04:15:09;;;;;;;6.63;2.50;;;15.90;99.90;;;;;;5022130;28;20032;-81
2023/08/22 04:17:35;;;;;;;2.65;1.60;;;15.90;99.90;;;;;;5021150;28;20033;-83
2023/08/22 04:20:03;;;;;;;2.13;1.33;;;15.90;99.90;;;;;;5023554;28;20109;-87
2023/08/22 04:22:30;;;;;;;7.10;2.33;;;15.90;99.90;;;;;;5025617;28;20040;-85
2023/08/22 04:24:56;;;;;;;2.78;1.50;;;15.90;99.90;;;;;;5011733;28;20461;-84
2023/08/22 04:27:22;;;;;;;6.38;2.42;;;15.90;99.90;;;;;;5019701;28;20025;-83
2023/08/22 04:29:47;;;;;;;3.03;1.90;;;15.90;99.90;;;;;;5010569;28;20025;-81
2023/08/22 04:32:13;;;;;;;4.75;2.38;;;15.90;99.90;;;;;;5030522;28;20625;-82
2023/08/22 04:34:38;;;;;;;4.07;2.42;;;15.90;99.90;;;;;;5029118;28;20038;-86
2023/08/22 04:37:04;;;;;;;2.35;1.52;;;15.90;99.90;;;;;;5035303;28;20029;-82
2023/08/22 04:39:30;;;;;;;2.30;1.92;;;15.90;99.90;;;;;;5018307;28;20034;-83
2023/08/22 04:41:55;;;;;;;2.75;2.00;;;15.90;99.90;;;;;;5024907;28;20082;-83
2023/08/22 04:44:21;;;;;;;3.75;2.22;;;15.90;99.90;;;;;;5022051;28;20108;-84
2023/08/22 04:46:46;;;;;;;4.28;2.83;;;15.90;99.90;;;;;;5019537;28;20085;-82
2023/08/22 04:49:12;;;;;;;2.30;1.88;;;15.90;99.90;;;;;;5023000;28;20036;-84
2023/08/22 04:51:37;;;;;;;6.25;2.55;;;15.90;99.90;;;;;;5021181;28;20456;-83
2023/08/22 04:54:03;;;;;;;3.35;2.05;;;15.90;99.90;;;;;;5021217;28;20036;-82
2023/08/22 04:56:28;;;;;;;3.75;1.70;;;15.90;99.90;;;;;;5020814;28;20036;-85
2023/08/22 04:58:54;;;;;;;2.72;1.70;;;15.90;99.90;;;;;;5018805;28;20028;-83
2023/08/22 05:01:19;;;;;;;3.20;1.92;;;16.00;99.90;;;;;;5023133;28;20124;-86
2023/08/22 05:03:46;;;;;;;5.18;2.15;;;16.00;99.90;;;;;;5019081;28;20076;-84
2023/08/22 05:06:12;;;;;;;2.92;1.65;;;16.00;99.90;;;;;;5022437;28;20021;-82
2023/08/22 05:08:38;;;;;;;4.70;2.22;;;16.00;99.90;;;;;;5018453;28;20022;-84
2023/08/22 05:11:04;;;;;;;3.97;1.73;;;16.00;99.90;;;;;;5017519;28;20587;-82
2023/08/22 05:13:29;;;;;;;3.97;1.70;;;16.00;99.90;;;;;;5014001;28;20716;-84
2023/08/22 05:15:55;;;;;;;3.67;1.85;;;16.00;99.90;;;;;;5022452;28;20109;-82
2023/08/22 05:18:20;;;;;;;5.50;2.38;;;16.00;99.90;;;;;;5021905;28;20058;-81
2023/08/22 05:20:51;;;;;;;2.47;1.95;;;16.00;99.90;;;;;;5020345;28;20022;-83
2023/08/22 05:23:17;;;;;;;3.50;1.80;;;16.00;99.90;;;;;;5016344;28;20018;-84
2023/08/22 05:25:42;;;;;;;3.03;1.83;;;16.10;99.90;;;;;;5021202;28;20044;-83
2023/08/22 05:28:08;;;;;;;5.95;2.05;;;16.10;99.90;;;;;;5010744;28;20100;-87
2023/08/22 05:30:36;;;;;;;3.65;2.13;;;16.10;99.90;;;;;;5018210;28;20511;-87
2023/08/22 05:33:02;;;;;;;6.88;2.35;;;16.10;99.90;;;;;;5027437;28;20033;-83
2023/08/22 05:35:28;;;;;;;4.60;2.20;;;16.10;99.90;;;;;;5017753;28;20951;-82
2023/08/22 05:37:54;;;;;;;4.07;2.45;;;16.20;99.90;;;;;;5023991;28;20021;-82
2023/08/22 05:40:19;;;;;;;7.90;2.72;;;16.20;99.90;;;;;;5006684;28;20026;-86
2023/08/22 05:42:45;;;;;;;5.43;1.95;;;16.20;99.90;;;;;;5032532;28;20028;-87
2023/08/22 05:45:10;;;;;;;2.25;2.05;;;16.20;99.90;;;;;;5023013;28;20018;-84
2023/08/22 05:47:36;;;;;;;3.10;1.80;;;16.30;99.90;;;;;;5026324;28;20036;-84
2023/08/22 05:50:03;;;;;;;7.13;2.20;;;16.30;99.90;;;;;;5027198;28;20029;-85
2023/08/22 05:52:29;;;;;;;5.00;1.98;;;16.30;99.90;;;;;;5023476;28;20030;-83
2023/08/22 05:54:55;;;;;;;4.88;2.20;;;16.30;99.90;;;;;;5019071;28;20034;-87
2023/08/22 05:57:22;;;;;;;4.50;1.88;;;16.30;99.90;;;;;;5019212;28;20037;-81
2023/08/22 05:59:48;;;;;;;3.15;2.13;;;16.30;99.90;;;;;;5028317;28;20053;-83
2023/08/22 06:02:14;;;;;;;4.32;3.13;;;16.30;99.90;;;;;;5021791;28;20130;-83
2023/08/22 06:04:39;;;;;;;4.95;2.45;;;16.30;99.90;;;;;;5022542;28;20384;-83
2023/08/22 06:07:05;;;;;;;2.97;2.00;;;16.30;99.90;;;;;;5021853;28;20129;-81
2023/08/22 06:09:31;;;;;;;4.15;2.10;;;16.30;99.90;;;;;;5020100;28;20034;-83
2023/08/22 06:11:56;;;;;;;4.20;1.88;;;16.40;99.90;;;;;;5017185;28;20495;-88
2023/08/22 06:14:22;;;;;;;5.43;1.98;;;16.40;99.90;;;;;;5015055;28;20755;-83
2023/08/22 06:16:47;;;;;;;2.33;1.98;;;16.40;99.90;;;;;;5024016;28;20084;-83
2023/08/22 06:19:13;;;;;;;4.55;2.55;;;16.50;99.90;;;;;;5028416;28;20115;-82
2023/08/22 06:21:39;;;;;;;2.75;2.03;;;16.50;99.90;;;;;;5013110;28;20022;-81
2023/08/22 06:24:05;;;;;;;5.90;2.58;;;16.50;99.90;;;;;;5025030;28;20087;-83
2023/08/22 06:26:30;;;;;;;4.10;1.90;;;16.60;99.90;;;;;;5013138;28;20098;-82
2023/08/22 06:28:56;;;;;;;4.18;2.15;;;16.70;99.90;;;;;;5033146;28;20079;-84
2023/08/22 06:31:22;;;;;;;2.17;1.90;;;16.70;99.90;;;;;;5013962;28;20481;-82
2023/08/22 06:33:47;;;;;;;4.75;2.00;;;16.80;99.90;;;;;;5015252;28;20091;-82
2023/08/22 06:36:13;;;;;;;4.50;1.83;;;16.80;99.90;;;;;;5015170;28;20572;-83
2023/08/22 06:38:38;;;;;;;3.42;1.92;;;16.90;99.90;;;;;;5021531;28;20385;-83
2023/08/22 06:41:09;;;;;;;5.65;2.15;;;17.00;99.90;;;;;;5025616;28;20432;-82
2023/08/22 06:43:35;;;;;;;4.70;1.88;;;17.10;99.90;;;;;;5017235;28;20057;-81
2023/08/22 06:46:00;;;;;;;4.50;1.88;;;17.20;99.90;;;;;;5018545;28;20021;-86
2023/08/22 06:48:27;;;;;;;5.32;2.45;;;17.30;99.90;;;;;;5021742;28;20030;-86
2023/08/22 06:50:53;;;;;;;4.38;2.40;;;17.50;99.90;;;;;;5012521;28;20022;-84
2023/08/22 06:53:19;;;;;;;5.32;2.45;;;17.60;99.90;;;;;;5019143;28;20200;-83
2023/08/22 06:55:48;;;;;;;5.40;2.67;;;17.70;99.90;;;;;;5020226;28;20056;-83
2023/08/22 06:58:13;;;;;;;2.90;2.40;;;17.90;99.90;;;;;;5019705;28;20029;-86
2023/08/22 07:00:39;;;;;;;4.35;2.15;;;18.00;99.90;;;;;;5014773;28;20038;-84
2023/08/22 07:03:05;;;;;;;3.13;1.60;;;18.20;99.90;;;;;;5020550;28;20033;-83
2023/08/22 07:05:30;;;;;;;1.48;1.38;;;18.40;99.90;;;;;;5022128;28;20377;-82
2023/08/22 07:07:56;;;;;;;2.90;1.73;;;18.60;99.90;;;;;;5030795;28;20123;-82
2023/08/22 07:10:22;;;;;;;3.28;1.60;;;18.70;99.90;;;;;;5022295;28;20072;-83
2023/08/22 07:12:48;;;;;;;6.63;1.80;;;18.80;99.90;;;;;;5019428;28;20036;-82
2023/08/22 07:15:13;;;;;;;1.90;1.75;;;18.90;99.90;;;;;;5023805;28;20055;-83
2023/08/22 07:17:39;;;;;;;3.50;1.95;;;19.20;99.90;;;;;;5019848;28;20120;-82
2023/08/22 07:20:05;;;;;;;3.80;2.00;;;19.40;99.90;;;;;;5019328;28;20037;-82
2023/08/22 07:22:33;;;;;;;2.35;1.75;;;19.60;99.90;;;;;;5025934;28;20037;-82
2023/08/22 07:24:59;;;;;;;10.65;2.13;;;19.80;99.90;;;;;;5013918;28;20022;-84
2023/08/22 07:27:24;;;;;;;2.75;1.70;;;20.00;99.90;;;;;;5019647;28;20463;-82
2023/08/22 07:29:50;;;;;;;2.67;1.50;;;20.10;99.90;;;;;;5015194;28;20080;-84
2023/08/22 07:32:18;;;;;;;3.03;1.52;;;20.20;99.90;;;;;;5011497;28;20068;-83
2023/08/22 07:34:45;;;;;;;3.35;1.70;;;20.40;99.90;;;;;;5023282;28;20064;-83
2023/08/22 07:37:10;;;;;;;2.90;1.73;;;20.50;99.90;;;;;;5024567;28;20033;-84
2023/08/22 07:39:36;;;;;;;4.80;1.98;;;20.70;99.90;;;;;;5015062;28;20040;-81
2023/08/22 07:42:01;;;;;;;4.40;1.90;;;20.90;99.90;;;;;;5016581;28;20370;-82
2023/08/22 07:44:27;;;;;;;4.07;1.88;;;21.00;99.90;;;;;;5013555;28;20556;-82
2023/08/22 07:46:52;;;;;;;3.40;1.45;;;21.00;99.90;;;;;;5013001;28;20080;-84
2023/08/22 07:49:18;;;;;;;2.88;1.30;;;21.10;99.90;;;;;;5018072;28;20514;-84
2023/08/22 07:51:44;;;;;;;2.58;1.30;;;21.10;99.90;;;;;;5021650;28;20075;-83
2023/08/22 07:54:09;;;;;;;4.72;1.33;;;21.20;99.90;;;;;;5016137;28;20108;-86
2023/08/22 07:56:35;;;;;;;2.63;1.15;;;21.30;99.90;;;;;;5016711;28;20049;-84
2023/08/22 07:59:01;;;;;;;2.58;1.70;;;21.50;99.90;;;;;;5010335;28;20022;-84
2023/08/22 08:01:29;;;;;;;2.33;1.63;;;21.70;99.90;;;;;;5015124;28;20315;-82
2023/08/22 08:03:55;;;;;;;3.38;1.35;;;21.90;99.90;;;;;;5011734;28;20018;-83
2023/08/22 08:06:21;;;;;;;2.97;2.45;;;22.10;99.90;;;;;;5015964;28;20028;-83
2023/08/22 08:08:47;;;;;;;4.00;1.55;;;22.20;99.90;;;;;;5018024;28;20022;-83
2023/08/22 08:11:12;;;;;;;2.67;1.45;;;22.30;99.90;;;;;;5016884;28;20057;-82
2023/08/22 08:13:38;;;;;;;6.25;1.77;;;22.40;99.90;;;;;;5012269;28;20041;-83
2023/08/22 08:16:05;;;;;;;2.95;1.50;;;22.60;99.90;;;;;;5016833;28;20017;-83
2023/08/22 08:18:31;;;;;;;2.10;1.45;;;22.70;99.90;;;;;;5021682;28;20083;-86
2023/08/22 08:20:57;;;;;;;3.75;1.58;;;22.70;99.90;;;;;;5011242;28;20022;-83
2023/08/22 08:23:22;;;;;;;3.35;1.65;;;22.80;99.90;;;;;;5016414;28;20026;-83
2023/08/22 08:25:48;;;;;;;6.57;1.40;;;22.90;99.90;;;;;;4996785;28;20057;-83
2023/08/22 08:28:14;;;;;;;4.75;1.50;;;23.00;99.90;;;;;;5024849;28;20060;-83
2023/08/22 08:30:40;;;;;;;6.82;1.50;;;23.10;99.90;;;;;;5029265;28;20084;-84
2023/08/22 08:33:06;;;;;;;2.38;1.17;;;23.20;99.90;;;;;;5020669;28;20071;-84
2023/08/22 08:35:32;;;;;;;3.28;1.27;;;23.20;99.90;;;;;;5026291;28;20026;-86
2023/08/22 08:37:59;;;;;;;3.42;1.55;;;23.30;99.90;;;;;;5011762;28;20051;-87
2023/08/22 08:40:30;;;;;;;0.90;0.90;;;23.30;99.90;;;;;;5011491;28;20460;-82
2023/08/22 08:42:59;;;;;;;1.35;1.10;;;23.30;99.90;;;;;;5016160;28;20017;-86
2023/08/22 08:45:26;;;;;;;3.08;1.15;;;23.30;99.90;;;;;;5009870;28;20018;-82
2023/08/22 08:47:52;;;;;;;1.83;1.00;;;23.40;99.90;;;;;;5009795;28;20026;-82
2023/08/22 08:50:18;;;;;;;3.60;1.20;;;23.40;99.90;;;;;;5009694;28;20366;-84
2023/08/22 08:52:45;;;;;;;2.85;1.13;;;23.40;99.90;;;;;;5006624;28;20037;-83
2023/08/22 08:55:11;;;;;;;2.63;1.35;;;23.50;99.90;;;;;;5027166;28;20049;-87
2023/08/22 08:57:36;;;;;;;2.17;1.23;;;23.50;99.90;;;;;;5037653;28;20037;-86
2023/08/22 09:00:03;;;;;;;1.45;0.90;;;23.50;99.90;;;;;;5041435;28;20033;-83
2023/08/22 09:02:28;;;;;;;2.28;1.00;;;23.50;99.90;;;;;;5020056;28;20018;-84
2023/08/22 09:04:54;;;;;;;2.58;0.88;;;23.50;99.90;;;;;;5014018;28;20032;-84
2023/08/22 09:07:20;;;;;;;2.53;1.27;;;23.40;99.90;;;;;;5026497;28;20087;-84
2023/08/22 09:09:45;;;;;;;1.25;1.08;;;23.40;99.90;;;;;;5019568;28;20715;-84
2023/08/22 09:12:13;;;;;;;3.00;1.40;;;23.40;99.90;;;;;;5018386;28;20030;-85
2023/08/22 09:14:46;;;;;;;2.15;1.30;;;23.30;99.90;;;;;;5009855;28;20383;-82
2023/08/22 09:17:18;;;;;;;1.48;1.10;;;23.10;99.90;;;;;;5015473;28;20025;-82
2023/08/22 09:19:44;;;;;;;2.72;1.48;;;22.90;99.90;;;;;;5020433;28;20029;-85
2023/08/22 09:22:14;;;;;;;1.63;1.30;;;22.90;99.90;;;;;;5021923;28;20028;-83
2023/08/22 09:24:50;;;;;;;2.53;1.35;;;22.80;99.90;;;;;;5016457;28;20018;-83
2023/08/22 09:27:16;;;;;;;2.00;1.25;;;22.70;99.90;;;;;;5015866;28;20030;-84
2023/08/22 09:29:42;;;;;;;1.33;1.23;;;22.70;99.90;;;;;;5020047;28;20491;-88
2023/08/22 09:32:08;;;;;;;1.20;0.95;;;22.90;99.90;;;;;;5014043;28;20038;-86
2023/08/22 09:34:35;;;;;;;3.75;1.40;;;23.00;99.90;;;;;;5018344;28;20464;-83
2023/08/22 09:37:01;;;;;;;2.60;1.58;;;23.00;99.90;;;;;;5019163;28;20034;-84
2023/08/22 09:39:30;;;;;;;2.55;1.13;;;22.90;99.90;;;;;;5021509;28;20022;-83
2023/08/22 09:41:57;;;;;;;1.35;1.17;;;22.90;99.90;;;;;;5022263;28;20025;-88
2023/08/22 09:44:28;;;;;;;3.70;1.98;;;22.80;99.90;;;;;;5016708;28;20072;-84
2023/08/22 09:46:55;;;;;;;1.60;1.10;;;22.80;99.90;;;;;;5022763;28;20026;-84
2023/08/22 09:49:21;;;;;;;2.50;1.40;;;22.80;99.90;;;;;;5020825;28;20038;-84
2023/08/22 09:51:50;;;;;;;2.50;1.60;;;22.80;99.90;;;;;;5014402;28;20133;-83
2023/08/22 09:54:16;;;;;;;2.38;1.40;;;22.90;99.90;;;;;;5017272;28;20492;-83
2023/08/22 09:56:42;;;;;;;2.28;1.15;;;23.00;99.90;;;;;;5021325;28;20030;-82
2023/08/22 09:59:08;;;;;;;1.55;1.35;;;23.00;99.90;;;;;;5022288;28;20090;-83
2023/08/22 10:01:40;;;;;;;2.60;1.55;;;23.10;99.90;;;;;;5018566;28;20034;-85
2023/08/22 10:04:07;;;;;;;1.95;1.13;;;23.10;99.90;;;;;;5029165;28;20018;-83
2023/08/22 10:06:37;;;;;;;3.45;1.27;;;23.10;99.90;;;;;;5022375;28;20028;-82
2023/08/22 10:09:08;;;;;;;1.85;1.50;;;23.10;99.90;;;;;;5021319;28;20101;-89
2023/08/22 10:11:55;;;;;;;3.75;1.50;;;23.10;99.90;;;;;;5021698;28;20096;-84
2023/08/22 10:14:44;;;;;;;2.42;1.65;;;23.10;99.90;;;;;;5016470;28;20033;-86
2023/08/22 10:17:13;;;;;;;4.68;1.60;;;23.20;99.90;;;;;;5019898;28;20030;-84
2023/08/22 10:19:42;;;;;;;3.22;1.40;;;23.10;99.90;;;;;;5021705;28;20061;-86
2023/08/22 10:22:10;;;;;;;3.22;1.70;;;23.10;99.90;;;;;;5024089;28;20022;-86
2023/08/22 10:24:36;;;;;;;2.45;1.65;;;23.20;99.90;;;;;;5023359;28;20022;-84
2023/08/22 10:27:12;;;;;;;2.05;1.42;;;23.20;99.90;;;;;;5025637;28;20555;-83
2023/08/22 10:29:46;;;;;;;2.40;1.52;;;23.30;99.90;;;;;;5014146;28;20105;-83
2023/08/22 10:32:12;;;;;;;4.25;1.90;;;23.30;99.90;;;;;;5020373;28;20041;-85
2023/08/22 10:34:37;;;;;;;3.33;1.95;;;23.40;99.90;;;;;;5017022;28;20393;-84
2023/08/22 10:37:04;;;;;;;3.45;1.52;;;23.40;99.90;;;;;;5035813;28;20029;-92
2023/08/22 10:39:39;;;;;;;4.53;1.77;;;23.50;99.90;;;;;;5017401;28;20101;-85
2023/08/22 10:42:17;;;;;;;2.45;1.80;;;23.40;99.90;;;;;;5017216;28;20045;-83
2023/08/22 10:44:46;;;;;;;5.35;1.83;;;23.40;99.90;;;;;;5000925;28;20029;-83
2023/08/22 10:47:20;;;;;;;2.47;1.73;;;23.40;99.90;;;;;;5018224;28;20029;-85
2023/08/22 10:49:51;;;;;;;3.22;1.83;;;23.40;99.90;;;;;;5019714;28;20026;-83
2023/08/22 10:52:17;;;;;;;3.88;2.00;;;23.50;99.90;;;;;;5010465;28;20219;-82
2023/08/22 10:55:11;;;;;;;5.07;1.85;;;23.50;99.90;;;;;;5021082;28;20030;-86
2023/08/22 10:57:47;;;;;;;4.10;1.73;;;23.40;99.90;;;;;;5024015;28;20082;-82
2023/08/22 11:00:19;;;;;;;2.95;1.70;;;23.40;99.90;;;;;;5010710;28;20129;-86
2023/08/22 11:02:47;;;;;;;3.38;1.67;;;23.40;99.90;;;;;;5011032;28;20508;-83
2023/08/22 11:05:15;;;;;;;3.80;2.00;;;23.40;99.90;;;;;;5026342;28;20032;-84
2023/08/22 11:07:44;;;;;;;5.40;1.58;;;23.40;99.90;;;;;;5030928;28;20025;-86
2023/08/22 11:10:19;;;;;;;3.63;2.17;;;23.50;99.90;;;;;;5019926;28;20025;-83
2023/08/22 11:12:45;;;;;;;2.67;1.77;;;23.50;99.90;;;;;;5014769;28;20666;-83
2023/08/22 11:15:12;;;;;;;4.05;2.30;;;23.50;99.90;;;;;;5025738;28;20268;-84
2023/08/22 11:17:40;;;;;;;2.63;1.63;;;23.50;99.90;;;;;;5022529;28;20025;-82
2023/08/22 11:20:10;;;;;;;3.78;1.90;;;23.60;99.90;;;;;;5020596;28;20432;-83
2023/08/22 11:22:36;;;;;;;4.28;2.13;;;23.60;99.90;;;;;;5022559;28;20055;-82
2023/08/22 11:25:04;;;;;;;4.20;2.00;;;23.60;99.90;;;;;;5015466;28;20053;-83
2023/08/22 11:27:30;;;;;;;4.10;2.10;;;23.60;99.90;;;;;;5011340;28;20130;-88
2023/08/22 11:29:55;;;;;;;4.13;2.88;;;23.60;99.90;;;;;;5010980;28;20049;-85
2023/08/22 11:32:29;;;;;;;4.43;2.70;;;23.70;99.90;;;;;;5018838;28;20034;-83
2023/08/22 11:35:00;;;;;;;3.08;1.83;;;23.60;99.90;;;;;;5017739;28;20112;-84
2023/08/22 11:37:27;;;;;;;4.18;1.90;;;23.70;99.90;;;;;;5020348;28;20026;-83
2023/08/22 11:39:55;;;;;;;2.67;1.77;;;23.70;99.90;;;;;;5018632;28;20017;-84
2023/08/22 11:42:24;;;;;;;6.22;1.70;;;23.70;99.90;;;;;;5023477;28;20026;-83
2023/08/22 11:45:10;;;;;;;3.35;1.83;;;23.80;99.90;;;;;;5025773;28;20024;-88
2023/08/22 11:47:55;;;;;;;2.33;1.20;;;23.90;99.90;;;;;;5014112;28;20081;-86
2023/08/22 11:50:27;;;;;;;2.90;1.20;;;23.90;99.90;;;;;;5013826;28;20049;-84
2023/08/22 11:52:57;;;;;;;2.90;1.52;;;24.00;99.90;;;;;;5023275;28;20538;-84
2023/08/22 11:55:26;;;;;;;2.90;1.00;;;23.90;99.90;;;;;;5016673;28;20029;-84
2023/08/22 11:57:59;;;;;;;3.50;1.08;;;24.00;99.90;;;;;;5016222;28;20026;-83
2023/08/22 12:00:30;;;;;;;1.40;1.08;;;24.00;99.90;;;;;;5009955;28;20516;-87
2023/08/22 12:02:57;;;;;;;1.98;1.38;;;24.10;99.90;;;;;;5011955;28;20053;-82
2023/08/22 12:05:35;;;;;;;2.97;1.08;;;24.10;99.90;;;;;;5017685;28;20025;-85
2023/08/22 12:08:19;;;;;;;5.97;1.30;;;24.20;99.90;;;;;;5017281;28;20400;-83
2023/08/22 12:10:46;;;;;;;3.28;1.50;;;24.30;99.90;;;;;;5026795;28;20485;-84
2023/08/22 12:13:16;;;;;;;1.90;1.15;;;24.30;99.90;;;;;;5018909;28;20059;-83
2023/08/22 12:15:42;;;;;;;1.45;1.00;;;24.50;99.90;;;;;;5020471;28;20040;-82
2023/08/22 12:18:09;;;;;;;5.15;1.30;;;24.40;99.90;;;;;;5025064;28;20116;-81
2023/08/22 12:20:38;;;;;;;2.42;1.20;;;24.40;99.90;;;;;;5012345;28;20030;-82
2023/08/22 12:23:04;;;;;;;5.18;1.73;;;24.30;99.90;;;;;;5019658;28;20461;-83
2023/08/22 12:25:29;;;;;;;2.92;1.73;;;24.40;99.90;;;;;;5017790;28;20022;-82
2023/08/22 12:27:55;;;;;;;5.05;1.52;;;24.40;99.90;;;;;;5026747;28;20096;-81
2023/08/22 12:30:21;;;;;;;2.58;1.50;;;24.40;99.90;;;;;;5018417;28;20026;-81
2023/08/22 12:32:47;;;;;;;2.85;1.27;;;24.50;99.90;;;;;;5014392;28;20018;-82
2023/08/22 12:35:13;;;;;;;2.72;1.20;;;24.50;99.90;;;;;;5016949;28;20098;-81
2023/08/22 12:37:39;;;;;;;3.55;1.77;;;24.50;99.90;;;;;;5019434;28;20052;-81
2023/08/22 12:40:10;;;;;;;2.60;1.38;;;24.50;99.90;;;;;;5021039;28;20040;-80
2023/08/22 12:42:40;;;;;;;1.95;1.33;;;24.50;99.90;;;;;;5013021;28;20045;-83
2023/08/22 12:45:07;;;;;;;3.58;1.20;;;24.50;99.90;;;;;;5020378;28;20029;-82
2023/08/22 12:47:33;;;;;;;1.98;0.98;;;24.40;99.90;;;;;;5019293;28;20128;-82